sensor_id;sensor_type;location;lat;lon;timestamp;P1;durP1;ratioP1;P2;durP2;ratioP2
8831;SDS011;4452;50.756;4.472;2024-02-15T00:01:05;22.50;;;6.60;;
8831;SDS011;4452;50.756;4.472;2024-02-15T00:03:31;17.05;;;5.88;;
8831;SDS011;4452;50.756;4.472;2024-02-15T00:05:57;21.27;;;6.75;;
8831;SDS011;4452;50.756;4.472;2024-02-15T00:08:23;15.60;;;6.45;;
8831;SDS011;4452;50.756;4.472;2024-02-15T00:10:50;12.35;;;5.38;;
8831;SDS011;4452;50.756;4.472;2024-02-15T00:13:15;18.40;;;6.50;;
8831;SDS011;4452;50.756;4.472;2024-02-15T00:15:41;15.27;;;6.75;;
8831;SDS011;4452;50.756;4.472;2024-02-15T00:18:07;24.70;;;6.00;;
8831;SDS011;4452;50.756;4.472;2024-02-15T00:20:33;19.30;;;6.55;;
8831;SDS011;4452;50.756;4.472;2024-02-15T00:23:01;22.15;;;7.13;;
8831;SDS011;4452;50.756;4.472;2024-02-15T00:25:27;10.48;;;4.93;;
8831;SDS011;4452;50.756;4.472;2024-02-15T00:27:53;20.48;;;5.82;;
8831;SDS011;4452;50.756;4.472;2024-02-15T00:30:18;16.17;;;6.32;;
8831;SDS011;4452;50.756;4.472;2024-02-15T00:32:44;13.05;;;5.30;;
8831;SDS011;4452;50.756;4.472;2024-02-15T00:35:11;18.10;;;6.35;;
8831;SDS011;4452;50.756;4.472;2024-02-15T00:37:38;18.42;;;6.20;;
8831;SDS011;4452;50.756;4.472;2024-02-15T00:40:06;15.73;;;5.22;;
8831;SDS011;4452;50.756;4.472;2024-02-15T00:42:32;12.05;;;5.15;;
8831;SDS011;4452;50.756;4.472;2024-02-15T00:44:58;24.48;;;6.30;;
8831;SDS011;4452;50.756;4.472;2024-02-15T00:47:25;18.90;;;5.95;;
8831;SDS011;4452;50.756;4.472;2024-02-15T00:49:51;12.88;;;4.72;;
8831;SDS011;4452;50.756;4.472;2024-02-15T00:52:16;18.70;;;6.50;;
8831;SDS011;4452;50.756;4.472;2024-02-15T00:54:45;9.35;;;5.90;;
8831;SDS011;4452;50.756;4.472;2024-02-15T00:57:12;17.15;;;6.15;;
8831;SDS011;4452;50.756;4.472;2024-02-15T00:59:37;15.20;;;4.25;;
8831;SDS011;4452;50.756;4.472;2024-02-15T01:02:03;10.32;;;3.85;;
8831;SDS011;4452;50.756;4.472;2024-02-15T01:04:30;12.07;;;4.75;;
8831;SDS011;4452;50.756;4.472;2024-02-15T01:06:56;7.95;;;4.20;;
8831;SDS011;4452;50.756;4.472;2024-02-15T01:09:22;17.67;;;5.38;;
8831;SDS011;4452;50.756;4.472;2024-02-15T01:11:47;10.60;;;3.92;;
8831;SDS011;4452;50.756;4.472;2024-02-15T01:14:13;13.43;;;5.00;;
8831;SDS011;4452;50.756;4.472;2024-02-15T01:16:40;14.55;;;4.60;;
8831;SDS011;4452;50.756;4.472;2024-02-15T01:19:09;13.13;;;4.85;;
8831;SDS011;4452;50.756;4.472;2024-02-15T01:21:35;5.68;;;3.30;;
8831;SDS011;4452;50.756;4.472;2024-02-15T01:24:01;17.55;;;5.57;;
8831;SDS011;4452;50.756;4.472;2024-02-15T01:26:28;18.77;;;5.60;;
8831;SDS011;4452;50.756;4.472;2024-02-15T01:28:54;12.13;;;4.60;;
8831;SDS011;4452;50.756;4.472;2024-02-15T01:31:20;20.15;;;4.95;;
8831;SDS011;4452;50.756;4.472;2024-02-15T01:33:46;14.10;;;4.85;;
8831;SDS011;4452;50.756;4.472;2024-02-15T01:36:16;15.13;;;4.93;;
8831;SDS011;4452;50.756;4.472;2024-02-15T01:38:43;13.23;;;4.53;;
8831;SDS011;4452;50.756;4.472;2024-02-15T01:41:09;10.73;;;4.80;;
8831;SDS011;4452;50.756;4.472;2024-02-15T01:43:35;7.03;;;4.00;;
8831;SDS011;4452;50.756;4.472;2024-02-15T01:46:02;7.93;;;4.32;;
8831;SDS011;4452;50.756;4.472;2024-02-15T01:48:35;9.27;;;4.57;;
8831;SDS011;4452;50.756;4.472;2024-02-15T01:51:02;11.85;;;4.80;;
8831;SDS011;4452;50.756;4.472;2024-02-15T01:53:28;10.10;;;3.97;;
8831;SDS011;4452;50.756;4.472;2024-02-15T01:55:55;6.10;;;3.70;;
8831;SDS011;4452;50.756;4.472;2024-02-15T01:58:23;12.35;;;4.55;;
8831;SDS011;4452;50.756;4.472;2024-02-15T02:00:51;10.30;;;4.68;;
8831;SDS011;4452;50.756;4.472;2024-02-15T02:03:17;10.82;;;4.38;;
8831;SDS011;4452;50.756;4.472;2024-02-15T02:05:46;7.47;;;4.13;;
8831;SDS011;4452;50.756;4.472;2024-02-15T02:08:12;16.73;;;4.72;;
8831;SDS011;4452;50.756;4.472;2024-02-15T02:10:39;7.32;;;4.15;;
8831;SDS011;4452;50.756;4.472;2024-02-15T02:13:05;7.75;;;3.50;;
8831;SDS011;4452;50.756;4.472;2024-02-15T02:15:31;6.63;;;3.92;;
8831;SDS011;4452;50.756;4.472;2024-02-15T02:17:58;16.00;;;3.95;;
8831;SDS011;4452;50.756;4.472;2024-02-15T02:20:25;15.45;;;4.55;;
8831;SDS011;4452;50.756;4.472;2024-02-15T02:22:52;7.35;;;3.88;;
8831;SDS011;4452;50.756;4.472;2024-02-15T02:25:21;10.52;;;4.00;;
8831;SDS011;4452;50.756;4.472;2024-02-15T02:27:51;8.85;;;3.65;;
8831;SDS011;4452;50.756;4.472;2024-02-15T02:30:17;12.75;;;4.07;;
8831;SDS011;4452;50.756;4.472;2024-02-15T02:32:47;6.13;;;2.92;;
8831;SDS011;4452;50.756;4.472;2024-02-15T02:35:13;9.85;;;4.40;;
8831;SDS011;4452;50.756;4.472;2024-02-15T02:37:41;10.93;;;4.07;;
8831;SDS011;4452;50.756;4.472;2024-02-15T02:40:07;12.02;;;4.15;;
8831;SDS011;4452;50.756;4.472;2024-02-15T02:42:50;6.40;;;3.20;;
8831;SDS011;4452;50.756;4.472;2024-02-15T02:45:19;5.13;;;3.28;;
8831;SDS011;4452;50.756;4.472;2024-02-15T02:47:47;7.20;;;3.80;;
8831;SDS011;4452;50.756;4.472;2024-02-15T02:50:16;7.68;;;3.80;;
8831;SDS011;4452;50.756;4.472;2024-02-15T02:52:42;7.25;;;4.05;;
8831;SDS011;4452;50.756;4.472;2024-02-15T02:55:09;8.98;;;4.13;;
8831;SDS011;4452;50.756;4.472;2024-02-15T02:57:35;13.77;;;4.07;;
8831;SDS011;4452;50.756;4.472;2024-02-15T03:00:05;3.50;;;3.20;;
8831;SDS011;4452;50.756;4.472;2024-02-15T03:02:41;8.80;;;4.10;;
8831;SDS011;4452;50.756;4.472;2024-02-15T03:05:08;11.18;;;4.25;;
8831;SDS011;4452;50.756;4.472;2024-02-15T03:07:34;10.13;;;3.88;;
8831;SDS011;4452;50.756;4.472;2024-02-15T03:10:02;5.80;;;3.85;;
8831;SDS011;4452;50.756;4.472;2024-02-15T03:12:29;9.30;;;4.10;;
8831;SDS011;4452;50.756;4.472;2024-02-15T03:14:55;7.95;;;3.50;;
8831;SDS011;4452;50.756;4.472;2024-02-15T03:17:23;10.63;;;3.95;;
8831;SDS011;4452;50.756;4.472;2024-02-15T03:19:49;9.75;;;3.83;;
8831;SDS011;4452;50.756;4.472;2024-02-15T03:22:14;11.50;;;4.32;;
8831;SDS011;4452;50.756;4.472;2024-02-15T03:24:40;10.65;;;3.65;;
8831;SDS011;4452;50.756;4.472;2024-02-15T03:27:06;8.38;;;3.15;;
8831;SDS011;4452;50.756;4.472;2024-02-15T03:29:32;8.57;;;4.15;;
8831;SDS011;4452;50.756;4.472;2024-02-15T03:32:00;9.55;;;3.33;;
8831;SDS011;4452;50.756;4.472;2024-02-15T03:34:27;8.27;;;3.67;;
8831;SDS011;4452;50.756;4.472;2024-02-15T03:36:53;10.38;;;3.60;;
8831;SDS011;4452;50.756;4.472;2024-02-15T03:39:19;10.68;;;3.88;;
8831;SDS011;4452;50.756;4.472;2024-02-15T03:41:45;11.43;;;3.80;;
8831;SDS011;4452;50.756;4.472;2024-02-15T03:44:14;9.80;;;3.80;;
8831;SDS011;4452;50.756;4.472;2024-02-15T03:46:40;5.75;;;3.53;;
8831;SDS011;4452;50.756;4.472;2024-02-15T03:49:05;7.78;;;3.40;;
8831;SDS011;4452;50.756;4.472;2024-02-15T03:51:33;8.75;;;3.65;;
8831;SDS011;4452;50.756;4.472;2024-02-15T03:53:59;8.05;;;3.72;;
8831;SDS011;4452;50.756;4.472;2024-02-15T03:56:25;8.70;;;3.55;;
8831;SDS011;4452;50.756;4.472;2024-02-15T03:58:51;7.22;;;3.17;;
8831;SDS011;4452;50.756;4.472;2024-02-15T04:01:16;8.95;;;3.40;;
8831;SDS011;4452;50.756;4.472;2024-02-15T04:03:42;9.55;;;3.03;;
8831;SDS011;4452;50.756;4.472;2024-02-15T04:06:08;11.15;;;3.42;;
8831;SDS011;4452;50.756;4.472;2024-02-15T04:08:35;4.07;;;3.40;;
8831;SDS011;4452;50.756;4.472;2024-02-15T04:11:04;8.25;;;3.40;;
8831;SDS011;4452;50.756;4.472;2024-02-15T04:13:35;6.28;;;3.50;;
8831;SDS011;4452;50.756;4.472;2024-02-15T04:16:00;7.07;;;3.10;;
8831;SDS011;4452;50.756;4.472;2024-02-15T04:18:26;9.48;;;3.50;;
8831;SDS011;4452;50.756;4.472;2024-02-15T04:20:52;7.55;;;3.20;;
8831;SDS011;4452;50.756;4.472;2024-02-15T04:23:18;13.18;;;3.30;;
8831;SDS011;4452;50.756;4.472;2024-02-15T04:25:44;8.57;;;3.40;;
8831;SDS011;4452;50.756;4.472;2024-02-15T04:28:16;5.88;;;3.55;;
8831;SDS011;4452;50.756;4.472;2024-02-15T04:30:41;7.22;;;3.60;;
8831;SDS011;4452;50.756;4.472;2024-02-15T04:33:07;8.65;;;3.20;;
8831;SDS011;4452;50.756;4.472;2024-02-15T04:35:33;6.05;;;3.70;;
8831;SDS011;4452;50.756;4.472;2024-02-15T04:37:59;11.38;;;3.38;;
8831;SDS011;4452;50.756;4.472;2024-02-15T04:40:24;12.10;;;3.53;;
8831;SDS011;4452;50.756;4.472;2024-02-15T04:42:50;9.52;;;3.30;;
8831;SDS011;4452;50.756;4.472;2024-02-15T04:45:17;12.10;;;4.10;;
8831;SDS011;4452;50.756;4.472;2024-02-15T04:47:44;5.82;;;3.00;;
8831;SDS011;4452;50.756;4.472;2024-02-15T04:50:15;9.00;;;4.00;;
8831;SDS011;4452;50.756;4.472;2024-02-15T04:52:43;5.18;;;3.22;;
8831;SDS011;4452;50.756;4.472;2024-02-15T04:55:10;6.65;;;3.58;;
8831;SDS011;4452;50.756;4.472;2024-02-15T04:57:36;7.57;;;3.13;;
8831;SDS011;4452;50.756;4.472;2024-02-15T05:00:02;6.45;;;3.42;;
8831;SDS011;4452;50.756;4.472;2024-02-15T05:02:36;8.98;;;3.17;;
8831;SDS011;4452;50.756;4.472;2024-02-15T05:05:06;8.40;;;3.28;;
8831;SDS011;4452;50.756;4.472;2024-02-15T05:07:33;6.63;;;3.50;;
8831;SDS011;4452;50.756;4.472;2024-02-15T05:10:00;10.00;;;3.28;;
8831;SDS011;4452;50.756;4.472;2024-02-15T05:12:31;9.20;;;3.55;;
8831;SDS011;4452;50.756;4.472;2024-02-15T05:14:58;11.60;;;3.63;;
8831;SDS011;4452;50.756;4.472;2024-02-15T05:17:24;9.75;;;3.78;;
8831;SDS011;4452;50.756;4.472;2024-02-15T05:19:49;4.45;;;3.40;;
8831;SDS011;4452;50.756;4.472;2024-02-15T05:22:15;9.70;;;3.47;;
8831;SDS011;4452;50.756;4.472;2024-02-15T05:24:41;6.50;;;3.70;;
8831;SDS011;4452;50.756;4.472;2024-02-15T05:27:07;9.38;;;3.75;;
8831;SDS011;4452;50.756;4.472;2024-02-15T05:29:32;7.82;;;3.45;;
8831;SDS011;4452;50.756;4.472;2024-02-15T05:32:00;9.30;;;3.55;;
8831;SDS011;4452;50.756;4.472;2024-02-15T05:34:26;8.63;;;3.58;;
8831;SDS011;4452;50.756;4.472;2024-02-15T05:36:52;4.53;;;3.05;;
8831;SDS011;4452;50.756;4.472;2024-02-15T05:39:17;10.50;;;4.05;;
8831;SDS011;4452;50.756;4.472;2024-02-15T05:41:46;4.00;;;3.00;;
8831;SDS011;4452;50.756;4.472;2024-02-15T05:44:12;7.75;;;3.53;;
8831;SDS011;4452;50.756;4.472;2024-02-15T05:46:43;10.55;;;3.30;;
8831;SDS011;4452;50.756;4.472;2024-02-15T05:49:08;5.90;;;3.63;;
8831;SDS011;4452;50.756;4.472;2024-02-15T05:51:40;8.27;;;3.28;;
8831;SDS011;4452;50.756;4.472;2024-02-15T05:54:06;9.00;;;3.03;;
8831;SDS011;4452;50.756;4.472;2024-02-15T05:56:31;10.48;;;3.28;;
8831;SDS011;4452;50.756;4.472;2024-02-15T05:58:57;8.63;;;3.40;;
8831;SDS011;4452;50.756;4.472;2024-02-15T06:01:23;8.68;;;3.22;;
8831;SDS011;4452;50.756;4.472;2024-02-15T06:03:49;9.23;;;4.00;;
8831;SDS011;4452;50.756;4.472;2024-02-15T06:06:16;6.60;;;3.33;;
8831;SDS011;4452;50.756;4.472;2024-02-15T06:08:42;8.07;;;3.75;;
8831;SDS011;4452;50.756;4.472;2024-02-15T06:11:12;3.45;;;2.55;;
8831;SDS011;4452;50.756;4.472;2024-02-15T06:13:39;6.55;;;3.50;;
8831;SDS011;4452;50.756;4.472;2024-02-15T06:16:06;2.80;;;2.47;;
8831;SDS011;4452;50.756;4.472;2024-02-15T06:18:34;4.50;;;3.00;;
8831;SDS011;4452;50.756;4.472;2024-02-15T06:21:00;5.75;;;2.72;;
8831;SDS011;4452;50.756;4.472;2024-02-15T06:23:27;7.75;;;3.10;;
8831;SDS011;4452;50.756;4.472;2024-02-15T06:25:54;4.50;;;3.13;;
8831;SDS011;4452;50.756;4.472;2024-02-15T06:28:23;6.90;;;3.08;;
8831;SDS011;4452;50.756;4.472;2024-02-15T06:31:08;6.35;;;2.97;;
8831;SDS011;4452;50.756;4.472;2024-02-15T06:33:53;6.72;;;3.15;;
8831;SDS011;4452;50.756;4.472;2024-02-15T06:36:46;6.90;;;3.40;;
8831;SDS011;4452;50.756;4.472;2024-02-15T06:39:32;7.85;;;3.15;;
8831;SDS011;4452;50.756;4.472;2024-02-15T06:42:10;5.15;;;3.10;;
8831;SDS011;4452;50.756;4.472;2024-02-15T06:44:40;7.45;;;3.53;;
8831;SDS011;4452;50.756;4.472;2024-02-15T06:47:06;16.23;;;4.85;;
8831;SDS011;4452;50.756;4.472;2024-02-15T06:49:32;4.40;;;3.00;;
8831;SDS011;4452;50.756;4.472;2024-02-15T06:51:58;5.55;;;3.22;;
8831;SDS011;4452;50.756;4.472;2024-02-15T06:54:27;9.68;;;4.13;;
8831;SDS011;4452;50.756;4.472;2024-02-15T06:56:53;5.47;;;3.90;;
8831;SDS011;4452;50.756;4.472;2024-02-15T06:59:20;6.70;;;3.90;;
8831;SDS011;4452;50.756;4.472;2024-02-15T07:01:47;3.90;;;3.50;;
8831;SDS011;4452;50.756;4.472;2024-02-15T07:04:17;7.90;;;3.70;;
8831;SDS011;4452;50.756;4.472;2024-02-15T07:06:44;5.80;;;3.58;;
8831;SDS011;4452;50.756;4.472;2024-02-15T07:09:12;6.30;;;3.63;;
8831;SDS011;4452;50.756;4.472;2024-02-15T07:11:40;16.20;;;4.32;;
8831;SDS011;4452;50.756;4.472;2024-02-15T07:14:06;6.63;;;3.35;;
8831;SDS011;4452;50.756;4.472;2024-02-15T07:16:34;9.30;;;3.63;;
8831;SDS011;4452;50.756;4.472;2024-02-15T07:19:00;9.43;;;4.05;;
8831;SDS011;4452;50.756;4.472;2024-02-15T07:21:26;5.55;;;3.65;;
8831;SDS011;4452;50.756;4.472;2024-02-15T07:23:55;6.57;;;3.30;;
8831;SDS011;4452;50.756;4.472;2024-02-15T07:26:22;6.55;;;3.28;;
8831;SDS011;4452;50.756;4.472;2024-02-15T07:28:52;7.97;;;3.25;;
8831;SDS011;4452;50.756;4.472;2024-02-15T07:31:18;8.65;;;3.00;;
8831;SDS011;4452;50.756;4.472;2024-02-15T07:33:46;8.02;;;3.40;;
8831;SDS011;4452;50.756;4.472;2024-02-15T07:36:14;3.47;;;3.08;;
8831;SDS011;4452;50.756;4.472;2024-02-15T07:38:43;4.45;;;3.33;;
8831;SDS011;4452;50.756;4.472;2024-02-15T07:41:10;8.15;;;3.15;;
8831;SDS011;4452;50.756;4.472;2024-02-15T07:43:37;4.78;;;3.35;;
8831;SDS011;4452;50.756;4.472;2024-02-15T07:46:04;3.10;;;2.85;;
8831;SDS011;4452;50.756;4.472;2024-02-15T07:48:30;13.55;;;4.05;;
8831;SDS011;4452;50.756;4.472;2024-02-15T07:50:56;3.45;;;3.15;;
8831;SDS011;4452;50.756;4.472;2024-02-15T07:53:23;4.18;;;2.92;;
8831;SDS011;4452;50.756;4.472;2024-02-15T07:55:50;4.65;;;3.40;;
8831;SDS011;4452;50.756;4.472;2024-02-15T07:58:15;4.85;;;3.03;;
8831;SDS011;4452;50.756;4.472;2024-02-15T08:00:44;4.43;;;3.22;;
8831;SDS011;4452;50.756;4.472;2024-02-15T08:03:10;6.03;;;3.35;;
8831;SDS011;4452;50.756;4.472;2024-02-15T08:05:36;6.05;;;3.28;;
8831;SDS011;4452;50.756;4.472;2024-02-15T08:08:03;4.10;;;2.85;;
8831;SDS011;4452;50.756;4.472;2024-02-15T08:10:29;5.88;;;3.30;;
8831;SDS011;4452;50.756;4.472;2024-02-15T08:12:55;8.30;;;3.50;;
8831;SDS011;4452;50.756;4.472;2024-02-15T08:15:23;3.40;;;3.10;;
8831;SDS011;4452;50.756;4.472;2024-02-15T08:17:49;3.53;;;3.22;;
8831;SDS011;4452;50.756;4.472;2024-02-15T08:20:15;3.75;;;3.45;;
8831;SDS011;4452;50.756;4.472;2024-02-15T08:22:46;9.95;;;3.08;;
8831;SDS011;4452;50.756;4.472;2024-02-15T08:25:13;6.85;;;3.42;;
8831;SDS011;4452;50.756;4.472;2024-02-15T08:27:41;4.38;;;3.33;;
8831;SDS011;4452;50.756;4.472;2024-02-15T08:30:09;4.72;;;3.75;;
8831;SDS011;4452;50.756;4.472;2024-02-15T08:32:40;8.35;;;3.75;;
8831;SDS011;4452;50.756;4.472;2024-02-15T08:35:13;5.18;;;3.83;;
8831;SDS011;4452;50.756;4.472;2024-02-15T08:37:40;4.93;;;4.00;;
8831;SDS011;4452;50.756;4.472;2024-02-15T08:40:10;7.43;;;5.15;;
8831;SDS011;4452;50.756;4.472;2024-02-15T08:42:43;8.48;;;4.97;;
8831;SDS011;4452;50.756;4.472;2024-02-15T08:45:09;10.67;;;5.73;;
8831;SDS011;4452;50.756;4.472;2024-02-15T08:47:39;9.95;;;6.82;;
8831;SDS011;4452;50.756;4.472;2024-02-15T08:50:05;13.55;;;5.88;;
8831;SDS011;4452;50.756;4.472;2024-02-15T08:52:33;7.80;;;5.10;;
8831;SDS011;4452;50.756;4.472;2024-02-15T08:54:59;9.38;;;4.95;;
8831;SDS011;4452;50.756;4.472;2024-02-15T08:57:26;10.38;;;4.88;;
8831;SDS011;4452;50.756;4.472;2024-02-15T08:59:51;10.20;;;5.32;;
8831;SDS011;4452;50.756;4.472;2024-02-15T09:02:20;4.72;;;4.22;;
8831;SDS011;4452;50.756;4.472;2024-02-15T09:04:46;9.65;;;4.63;;
8831;SDS011;4452;50.756;4.472;2024-02-15T09:07:12;16.50;;;4.68;;
8831;SDS011;4452;50.756;4.472;2024-02-15T09:09:37;9.32;;;4.90;;
8831;SDS011;4452;50.756;4.472;2024-02-15T09:12:03;8.05;;;4.60;;
8831;SDS011;4452;50.756;4.472;2024-02-15T09:14:34;7.80;;;4.68;;
8831;SDS011;4452;50.756;4.472;2024-02-15T09:17:01;4.93;;;4.35;;
8831;SDS011;4452;50.756;4.472;2024-02-15T09:19:32;5.32;;;4.50;;
8831;SDS011;4452;50.756;4.472;2024-02-15T09:21:59;4.43;;;4.03;;
8831;SDS011;4452;50.756;4.472;2024-02-15T09:24:24;11.55;;;4.13;;
8831;SDS011;4452;50.756;4.472;2024-02-15T09:26:50;5.90;;;4.35;;
8831;SDS011;4452;50.756;4.472;2024-02-15T09:29:17;4.15;;;3.75;;
8831;SDS011;4452;50.756;4.472;2024-02-15T09:31:45;3.95;;;3.60;;
8831;SDS011;4452;50.756;4.472;2024-02-15T09:34:14;6.68;;;3.80;;
8831;SDS011;4452;50.756;4.472;2024-02-15T09:36:40;7.88;;;3.92;;
8831;SDS011;4452;50.756;4.472;2024-02-15T09:39:05;6.18;;;4.18;;
8831;SDS011;4452;50.756;4.472;2024-02-15T09:41:31;6.97;;;4.05;;
8831;SDS011;4452;50.756;4.472;2024-02-15T09:43:58;5.82;;;3.53;;
8831;SDS011;4452;50.756;4.472;2024-02-15T09:46:26;6.35;;;3.60;;
8831;SDS011;4452;50.756;4.472;2024-02-15T09:48:52;5.65;;;3.40;;
8831;SDS011;4452;50.756;4.472;2024-02-15T09:51:24;4.93;;;3.72;;
8831;SDS011;4452;50.756;4.472;2024-02-15T09:53:52;5.93;;;3.50;;
8831;SDS011;4452;50.756;4.472;2024-02-15T09:56:19;3.30;;;3.10;;
8831;SDS011;4452;50.756;4.472;2024-02-15T09:58:46;3.78;;;3.47;;
8831;SDS011;4452;50.756;4.472;2024-02-15T10:01:12;8.45;;;3.60;;
8831;SDS011;4452;50.756;4.472;2024-02-15T10:03:40;6.22;;;3.78;;
8831;SDS011;4452;50.756;4.472;2024-02-15T10:06:06;6.30;;;3.55;;
8831;SDS011;4452;50.756;4.472;2024-02-15T10:08:31;6.65;;;3.72;;
8831;SDS011;4452;50.756;4.472;2024-02-15T10:11:18;5.18;;;3.92;;
8831;SDS011;4452;50.756;4.472;2024-02-15T10:13:45;5.10;;;3.75;;
8831;SDS011;4452;50.756;4.472;2024-02-15T10:16:15;3.28;;;2.97;;
8831;SDS011;4452;50.756;4.472;2024-02-15T10:18:47;3.55;;;3.35;;
8831;SDS011;4452;50.756;4.472;2024-02-15T10:21:25;3.70;;;3.30;;
8831;SDS011;4452;50.756;4.472;2024-02-15T10:24:06;5.68;;;3.55;;
8831;SDS011;4452;50.756;4.472;2024-02-15T10:26:34;4.95;;;4.05;;
8831;SDS011;4452;50.756;4.472;2024-02-15T10:29:10;3.58;;;3.28;;
8831;SDS011;4452;50.756;4.472;2024-02-15T10:31:40;9.95;;;3.65;;
8831;SDS011;4452;50.756;4.472;2024-02-15T10:34:18;7.20;;;3.50;;
8831;SDS011;4452;50.756;4.472;2024-02-15T10:36:45;7.18;;;3.35;;
8831;SDS011;4452;50.756;4.472;2024-02-15T10:41:52;7.18;;;3.33;;
8831;SDS011;4452;50.756;4.472;2024-02-15T10:44:23;6.68;;;3.58;;
8831;SDS011;4452;50.756;4.472;2024-02-15T10:46:50;5.28;;;3.80;;
8831;SDS011;4452;50.756;4.472;2024-02-15T10:49:20;6.38;;;3.45;;
8831;SDS011;4452;50.756;4.472;2024-02-15T10:51:54;5.63;;;4.07;;
8831;SDS011;4452;50.756;4.472;2024-02-15T10:57:03;7.72;;;3.40;;
8831;SDS011;4452;50.756;4.472;2024-02-15T10:59:31;6.20;;;3.88;;
8831;SDS011;4452;50.756;4.472;2024-02-15T11:02:04;4.78;;;3.53;;
8831;SDS011;4452;50.756;4.472;2024-02-15T11:04:48;4.45;;;3.63;;
8831;SDS011;4452;50.756;4.472;2024-02-15T11:07:22;5.35;;;3.72;;
8831;SDS011;4452;50.756;4.472;2024-02-15T11:09:49;6.95;;;3.78;;
8831;SDS011;4452;50.756;4.472;2024-02-15T11:12:16;7.25;;;3.88;;
8831;SDS011;4452;50.756;4.472;2024-02-15T11:14:45;5.70;;;3.78;;
8831;SDS011;4452;50.756;4.472;2024-02-15T11:17:11;7.05;;;4.00;;
8831;SDS011;4452;50.756;4.472;2024-02-15T11:20:09;4.97;;;3.38;;
8831;SDS011;4452;50.756;4.472;2024-02-15T11:22:38;8.90;;;4.68;;
8831;SDS011;4452;50.756;4.472;2024-02-15T11:25:04;6.40;;;3.92;;
8831;SDS011;4452;50.756;4.472;2024-02-15T11:27:36;6.40;;;4.00;;
8831;SDS011;4452;50.756;4.472;2024-02-15T11:30:03;6.13;;;3.40;;
8831;SDS011;4452;50.756;4.472;2024-02-15T11:32:50;3.83;;;2.53;;
8831;SDS011;4452;50.756;4.472;2024-02-15T11:35:22;7.32;;;3.05;;
8831;SDS011;4452;50.756;4.472;2024-02-15T11:40:20;3.60;;;3.30;;
8831;SDS011;4452;50.756;4.472;2024-02-15T11:43:01;3.50;;;3.15;;
8831;SDS011;4452;50.756;4.472;2024-02-15T11:45:29;3.40;;;3.10;;
8831;SDS011;4452;50.756;4.472;2024-02-15T11:48:02;5.47;;;3.38;;
8831;SDS011;4452;50.756;4.472;2024-02-15T11:50:33;3.40;;;3.10;;
8831;SDS011;4452;50.756;4.472;2024-02-15T11:53:03;4.85;;;3.00;;
8831;SDS011;4452;50.756;4.472;2024-02-15T11:55:36;3.20;;;2.90;;
8831;SDS011;4452;50.756;4.472;2024-02-15T11:58:05;3.75;;;2.97;;
8831;SDS011;4452;50.756;4.472;2024-02-15T12:00:32;9.30;;;3.20;;
8831;SDS011;4452;50.756;4.472;2024-02-15T12:03:17;5.43;;;3.15;;
8831;SDS011;4452;50.756;4.472;2024-02-15T12:06:02;4.22;;;3.00;;
8831;SDS011;4452;50.756;4.472;2024-02-15T12:08:46;3.25;;;2.85;;
8831;SDS011;4452;50.756;4.472;2024-02-15T12:11:31;5.85;;;3.05;;
8831;SDS011;4452;50.756;4.472;2024-02-15T12:14:16;3.95;;;3.13;;
8831;SDS011;4452;50.756;4.472;2024-02-15T12:17:04;4.28;;;3.05;;
8831;SDS011;4452;50.756;4.472;2024-02-15T12:19:53;3.90;;;3.10;;
8831;SDS011;4452;50.756;4.472;2024-02-15T12:22:26;7.43;;;3.00;;
8831;SDS011;4452;50.756;4.472;2024-02-15T12:25:01;3.78;;;3.13;;
8831;SDS011;4452;50.756;4.472;2024-02-15T12:27:37;8.55;;;3.30;;
8831;SDS011;4452;50.756;4.472;2024-02-15T12:30:04;5.18;;;3.03;;
8831;SDS011;4452;50.756;4.472;2024-02-15T12:32:32;3.85;;;2.92;;
8831;SDS011;4452;50.756;4.472;2024-02-15T12:37:48;3.40;;;2.97;;
8831;SDS011;4452;50.756;4.472;2024-02-15T12:40:19;3.40;;;3.10;;
8831;SDS011;4452;50.756;4.472;2024-02-15T12:42:47;7.00;;;3.17;;
8831;SDS011;4452;50.756;4.472;2024-02-15T12:45:19;5.22;;;3.00;;
8831;SDS011;4452;50.756;4.472;2024-02-15T12:47:55;3.35;;;2.90;;
8831;SDS011;4452;50.756;4.472;2024-02-15T12:50:28;6.65;;;2.65;;
8831;SDS011;4452;50.756;4.472;2024-02-15T12:52:54;4.25;;;3.53;;
8831;SDS011;4452;50.756;4.472;2024-02-15T12:57:52;4.45;;;2.70;;
8831;SDS011;4452;50.756;4.472;2024-02-15T13:00:24;4.03;;;2.95;;
8831;SDS011;4452;50.756;4.472;2024-02-15T13:02:54;3.05;;;2.83;;
8831;SDS011;4452;50.756;4.472;2024-02-15T13:05:21;13.63;;;2.88;;
8831;SDS011;4452;50.756;4.472;2024-02-15T13:07:51;3.55;;;2.50;;
8831;SDS011;4452;50.756;4.472;2024-02-15T13:10:20;3.00;;;2.70;;
8831;SDS011;4452;50.756;4.472;2024-02-15T13:12:47;2.88;;;2.67;;
8831;SDS011;4452;50.756;4.472;2024-02-15T13:15:13;2.50;;;2.40;;
8831;SDS011;4452;50.756;4.472;2024-02-15T13:17:45;3.78;;;2.70;;
8831;SDS011;4452;50.756;4.472;2024-02-15T13:20:13;3.35;;;2.55;;
8831;SDS011;4452;50.756;4.472;2024-02-15T13:22:43;3.45;;;2.90;;
8831;SDS011;4452;50.756;4.472;2024-02-15T13:25:09;3.92;;;2.90;;
8831;SDS011;4452;50.756;4.472;2024-02-15T13:27:36;2.60;;;2.40;;
8831;SDS011;4452;50.756;4.472;2024-02-15T13:30:06;2.53;;;2.30;;
8831;SDS011;4452;50.756;4.472;2024-02-15T13:32:34;2.55;;;2.45;;
8831;SDS011;4452;50.756;4.472;2024-02-15T13:35:07;5.40;;;2.70;;
8831;SDS011;4452;50.756;4.472;2024-02-15T13:37:47;2.85;;;2.60;;
8831;SDS011;4452;50.756;4.472;2024-02-15T13:40:14;2.90;;;2.70;;
8831;SDS011;4452;50.756;4.472;2024-02-15T13:42:44;2.95;;;2.65;;
8831;SDS011;4452;50.756;4.472;2024-02-15T13:45:22;2.75;;;2.65;;
8831;SDS011;4452;50.756;4.472;2024-02-15T13:47:52;4.32;;;2.92;;
8831;SDS011;4452;50.756;4.472;2024-02-15T13:50:19;3.05;;;2.75;;
8831;SDS011;4452;50.756;4.472;2024-02-15T13:52:45;8.02;;;3.00;;
8831;SDS011;4452;50.756;4.472;2024-02-15T13:55:15;3.35;;;2.60;;
8831;SDS011;4452;50.756;4.472;2024-02-15T13:57:46;2.75;;;2.55;;
8831;SDS011;4452;50.756;4.472;2024-02-15T14:00:12;3.78;;;2.60;;
8831;SDS011;4452;50.756;4.472;2024-02-15T14:05:15;2.72;;;2.60;;
8831;SDS011;4452;50.756;4.472;2024-02-15T14:07:45;2.58;;;2.47;;
8831;SDS011;4452;50.756;4.472;2024-02-15T14:10:15;4.15;;;2.90;;
8831;SDS011;4452;50.756;4.472;2024-02-15T14:12:44;5.70;;;2.67;;
8831;SDS011;4452;50.756;4.472;2024-02-15T14:15:11;2.70;;;2.60;;
8831;SDS011;4452;50.756;4.472;2024-02-15T14:17:37;3.20;;;2.53;;
8831;SDS011;4452;50.756;4.472;2024-02-15T14:20:03;5.47;;;2.67;;
8831;SDS011;4452;50.756;4.472;2024-02-15T14:22:34;2.70;;;2.50;;
8831;SDS011;4452;50.756;4.472;2024-02-15T14:25:00;2.70;;;2.60;;
8831;SDS011;4452;50.756;4.472;2024-02-15T14:27:26;2.80;;;2.60;;
8831;SDS011;4452;50.756;4.472;2024-02-15T14:29:52;2.85;;;2.65;;
8831;SDS011;4452;50.756;4.472;2024-02-15T14:32:36;3.08;;;2.58;;
8831;SDS011;4452;50.756;4.472;2024-02-15T14:35:20;3.47;;;2.53;;
8831;SDS011;4452;50.756;4.472;2024-02-15T14:37:46;2.70;;;2.50;;
8831;SDS011;4452;50.756;4.472;2024-02-15T14:40:12;2.70;;;2.50;;
8831;SDS011;4452;50.756;4.472;2024-02-15T14:42:40;2.80;;;2.60;;
8831;SDS011;4452;50.756;4.472;2024-02-15T14:45:08;3.00;;;2.50;;
8831;SDS011;4452;50.756;4.472;2024-02-15T14:47:34;3.38;;;2.80;;
8831;SDS011;4452;50.756;4.472;2024-02-15T14:50:00;4.22;;;3.53;;
8831;SDS011;4452;50.756;4.472;2024-02-15T14:52:26;8.57;;;2.60;;
8831;SDS011;4452;50.756;4.472;2024-02-15T14:54:52;3.10;;;2.80;;
8831;SDS011;4452;50.756;4.472;2024-02-15T14:57:17;4.20;;;2.80;;
8831;SDS011;4452;50.756;4.472;2024-02-15T14:59:44;4.50;;;2.70;;
8831;SDS011;4452;50.756;4.472;2024-02-15T15:02:09;3.03;;;2.60;;
8831;SDS011;4452;50.756;4.472;2024-02-15T15:04:35;3.95;;;3.10;;
8831;SDS011;4452;50.756;4.472;2024-02-15T15:07:20;3.28;;;2.60;;
8831;SDS011;4452;50.756;4.472;2024-02-15T15:10:04;2.67;;;2.47;;
8831;SDS011;4452;50.756;4.472;2024-02-15T15:12:49;4.45;;;2.67;;
8831;SDS011;4452;50.756;4.472;2024-02-15T15:15:15;5.05;;;2.85;;
8831;SDS011;4452;50.756;4.472;2024-02-15T15:17:43;3.08;;;2.78;;
8831;SDS011;4452;50.756;4.472;2024-02-15T15:20:12;5.35;;;2.90;;
8831;SDS011;4452;50.756;4.472;2024-02-15T15:22:42;3.30;;;3.00;;
8831;SDS011;4452;50.756;4.472;2024-02-15T15:25:10;2.95;;;2.67;;
8831;SDS011;4452;50.756;4.472;2024-02-15T15:27:39;3.90;;;2.67;;
8831;SDS011;4452;50.756;4.472;2024-02-15T15:30:08;7.53;;;2.90;;
8831;SDS011;4452;50.756;4.472;2024-02-15T15:32:36;2.70;;;2.60;;
8831;SDS011;4452;50.756;4.472;2024-02-15T15:35:09;4.10;;;3.00;;
8831;SDS011;4452;50.756;4.472;2024-02-15T15:37:35;6.85;;;2.60;;